Time;durP1;ratioP1;P1;durP2;ratioP2;P2;SDS_P1;SDS_P2;PMS_P1;PMS_P2;Temp;Humidity;BMP_temperature;BMP_pressure;BME280_temperature;BME280_humidity;BME280_pressure;Samples;Min_cycle;Max_cycle;Signal;HPM_P1;HPM_P2
2021/06/23 00:02:25;;;;;;;6.47;3.75;;;15.30;76.30;;;;;;4994041;28;20500;-79
2021/06/23 00:04:51;;;;;;;6.13;4.07;;;15.30;76.30;;;;;;5010347;28;20412;-79
2021/06/23 00:07:17;;;;;;;7.80;3.35;;;15.30;76.40;;;;;;5043088;28;20301;-79
2021/06/23 00:09:43;;;;;;;7.47;2.97;;;15.40;76.60;;;;;;4993366;28;20467;-81
2021/06/23 00:12:15;;;;;;;8.00;3.55;;;15.30;76.70;;;;;;5010637;28;20030;-80
2021/06/23 00:14:41;;;;;;;6.25;3.28;;;15.30;76.80;;;;;;4996690;28;20439;-80
2021/06/23 00:17:07;;;;;;;4.30;3.00;;;15.30;77.00;;;;;;4997603;28;20025;-79
2021/06/23 00:19:32;;;;;;;5.03;2.97;;;15.30;77.20;;;;;;4997390;28;20038;-80
2021/06/23 00:21:58;;;;;;;4.43;3.00;;;15.20;77.50;;;;;;4997362;28;20029;-80
2021/06/23 00:24:23;;;;;;;4.63;2.83;;;15.30;77.80;;;;;;5013611;28;20034;-79
2021/06/23 00:26:49;;;;;;;5.55;2.97;;;15.20;77.90;;;;;;4997492;28;20044;-80
2021/06/23 00:29:15;;;;;;;5.88;2.90;;;15.20;78.00;;;;;;4997371;28;20397;-80
2021/06/23 00:31:41;;;;;;;5.13;2.90;;;15.20;78.60;;;;;;5014164;28;20040;-79
2021/06/23 00:34:11;;;;;;;5.15;2.88;;;15.20;78.60;;;;;;5013965;28;20030;-80
2021/06/23 00:36:37;;;;;;;5.75;3.10;;;15.20;78.80;;;;;;5014655;28;20080;-79
2021/06/23 00:39:03;;;;;;;4.63;2.53;;;15.20;79.00;;;;;;4998878;28;20072;-80
2021/06/23 00:41:28;;;;;;;6.15;2.95;;;15.10;79.20;;;;;;4999032;28;20057;-79
2021/06/23 00:43:56;;;;;;;4.97;3.20;;;15.10;79.40;;;;;;4998503;28;20100;-79
2021/06/23 00:46:22;;;;;;;3.72;2.75;;;15.20;79.80;;;;;;4998946;28;20132;-80
2021/06/23 00:48:56;;;;;;;5.32;3.28;;;15.20;80.00;;;;;;4999031;28;20030;-80
2021/06/23 00:51:22;;;;;;;5.47;3.15;;;15.20;80.10;;;;;;5014944;28;20026;-80
2021/06/23 00:53:47;;;;;;;5.68;3.10;;;15.30;80.10;;;;;;5014395;28;20018;-80
2021/06/23 00:56:15;;;;;;;6.78;3.75;;;15.30;80.30;;;;;;5014272;28;20080;-80
2021/06/23 00:58:42;;;;;;;6.10;3.72;;;15.40;80.30;;;;;;5015830;28;20025;-80
2021/06/23 01:01:08;;;;;;;7.43;3.53;;;15.40;80.40;;;;;;5015871;28;20104;-80
2021/06/23 01:03:35;;;;;;;4.97;3.20;;;15.40;80.20;;;;;;5013706;28;20037;-78
2021/06/23 01:06:01;;;;;;;7.00;3.35;;;15.30;80.20;;;;;;4998495;28;20030;-79
2021/06/23 01:08:27;;;;;;;6.18;2.90;;;15.20;80.10;;;;;;5013858;28;20053;-79
2021/06/23 01:10:53;;;;;;;5.68;3.47;;;15.10;80.30;;;;;;4996676;28;20456;-80
2021/06/23 01:13:28;;;;;;;5.72;3.83;;;15.00;80.80;;;;;;5015112;28;20162;-80
2021/06/23 01:16:02;;;;;;;5.50;3.75;;;15.00;81.20;;;;;;5013216;28;20077;-80
2021/06/23 01:18:28;;;;;;;5.97;4.00;;;14.90;81.50;;;;;;5013042;28;20488;-80
2021/06/23 01:20:54;;;;;;;5.68;3.65;;;14.90;81.80;;;;;;4996455;28;20045;-81
2021/06/23 01:23:19;;;;;;;5.35;4.07;;;14.90;82.10;;;;;;4996257;28;20030;-79
2021/06/23 01:25:48;;;;;;;6.35;3.75;;;14.90;82.20;;;;;;5011622;28;20040;-79
2021/06/23 01:28:14;;;;;;;5.77;3.30;;;14.90;82.30;;;;;;5014231;28;20034;-81
2021/06/23 01:30:40;;;;;;;5.45;4.10;;;15.00;82.30;;;;;;5012671;28;20034;-79
2021/06/23 01:33:06;;;;;;;8.45;4.22;;;14.90;82.40;;;;;;4996209;28;20538;-80
2021/06/23 01:35:32;;;;;;;8.65;4.55;;;14.90;82.60;;;;;;4996499;28;20029;-80
2021/06/23 01:38:03;;;;;;;6.30;4.28;;;14.90;82.80;;;;;;5012873;28;20496;-80
2021/06/23 01:40:30;;;;;;;6.88;4.35;;;14.90;83.10;;;;;;5012365;28;20118;-80
2021/06/23 01:42:56;;;;;;;6.72;4.03;;;14.80;83.10;;;;;;5013491;28;20025;-80
2021/06/23 01:45:21;;;;;;;6.00;4.32;;;14.90;83.30;;;;;;5012684;28;20029;-80
2021/06/23 01:47:47;;;;;;;6.00;3.95;;;14.80;83.60;;;;;;5012632;28;20026;-80
2021/06/23 01:50:13;;;;;;;6.55;4.07;;;14.70;83.80;;;;;;4995844;28;20041;-80
2021/06/23 01:52:40;;;;;;;7.07;4.22;;;14.70;84.30;;;;;;5012488;28;20057;-79
2021/06/23 01:55:07;;;;;;;6.38;4.35;;;14.70;84.50;;;;;;5012441;28;20076;-80
2021/06/23 01:57:39;;;;;;;5.50;3.92;;;14.60;84.60;;;;;;5012998;28;20037;-80
2021/06/23 02:00:05;;;;;;;5.43;3.88;;;14.60;85.00;;;;;;5013825;28;20104;-80
2021/06/23 02:02:37;;;;;;;9.02;4.65;;;14.50;85.40;;;;;;5012342;28;20042;-80
2021/06/23 02:05:04;;;;;;;6.93;3.95;;;14.40;85.30;;;;;;5012217;28;20116;-80
2021/06/23 02:07:54;;;;;;;6.75;3.90;;;14.40;85.40;;;;;;5013170;28;20026;-80
2021/06/23 02:10:54;;;;;;;6.00;3.70;;;14.40;85.90;;;;;;5013102;28;20064;-81
2021/06/23 02:13:20;;;;;;;8.70;4.30;;;14.40;86.30;;;;;;5011910;28;20045;-80
2021/06/23 02:15:47;;;;;;;8.40;4.30;;;14.40;86.00;;;;;;5012043;28;20068;-80
2021/06/23 02:18:12;;;;;;;8.85;4.25;;;14.30;86.20;;;;;;4995477;28;20395;-80
2021/06/23 02:20:39;;;;;;;6.90;4.13;;;14.30;86.60;;;;;;5011841;28;20122;-80
2021/06/23 02:23:07;;;;;;;6.43;4.70;;;14.30;87.10;;;;;;4995325;28;20029;-80
2021/06/23 02:25:33;;;;;;;5.30;4.22;;;14.20;87.50;;;;;;4995196;28;20117;-80
2021/06/23 02:27:59;;;;;;;4.90;3.50;;;14.20;87.70;;;;;;5011595;28;20117;-79
2021/06/23 02:30:25;;;;;;;4.82;3.75;;;14.20;88.10;;;;;;4994837;28;20120;-80
2021/06/23 02:32:54;;;;;;;4.55;3.63;;;14.20;88.50;;;;;;5012580;28;20447;-80
2021/06/23 02:35:24;;;;;;;6.80;3.55;;;14.20;88.90;;;;;;5011667;28;20052;-80
2021/06/23 02:37:51;;;;;;;7.35;4.20;;;14.20;89.10;;;;;;5011574;28;20037;-81
2021/06/23 02:40:18;;;;;;;4.30;3.20;;;14.20;89.10;;;;;;5011334;28;20030;-79
2021/06/23 02:42:45;;;;;;;6.32;3.83;;;14.20;89.80;;;;;;4995530;28;20120;-79
2021/06/23 02:45:12;;;;;;;4.78;3.65;;;14.20;89.60;;;;;;5012664;28;20115;-79
2021/06/23 02:47:38;;;;;;;3.75;2.90;;;14.20;89.90;;;;;;5013734;28;20083;-80
2021/06/23 02:50:05;;;;;;;5.20;2.90;;;14.20;90.00;;;;;;4996557;28;20022;-81
2021/06/23 02:52:34;;;;;;;4.53;3.47;;;14.10;90.10;;;;;;4995787;28;20038;-80
2021/06/23 02:55:01;;;;;;;4.80;3.25;;;14.20;90.20;;;;;;5011563;28;20029;-80
2021/06/23 02:57:27;;;;;;;3.22;2.42;;;14.10;90.30;;;;;;5011129;28;20026;-80
2021/06/23 02:59:54;;;;;;;3.28;2.72;;;14.20;90.40;;;;;;5011880;28;20554;-80
2021/06/23 03:02:20;;;;;;;3.65;2.85;;;14.10;90.50;;;;;;5012806;28;20026;-80
2021/06/23 03:04:47;;;;;;;3.95;2.95;;;14.10;90.60;;;;;;5011287;28;20103;-79
2021/06/23 03:07:14;;;;;;;4.18;2.83;;;14.10;90.70;;;;;;5011056;28;20409;-80
2021/06/23 03:09:43;;;;;;;4.00;2.83;;;14.10;90.90;;;;;;4994498;28;20120;-80
2021/06/23 03:12:10;;;;;;;6.07;2.72;;;14.10;90.90;;;;;;5010904;28;20032;-79
2021/06/23 03:14:35;;;;;;;4.57;2.72;;;14.10;91.10;;;;;;5010860;28;20025;-79
2021/06/23 03:17:01;;;;;;;4.28;2.78;;;14.10;91.10;;;;;;4994586;28;20448;-80
2021/06/23 03:19:27;;;;;;;3.13;2.78;;;14.10;91.10;;;;;;4994458;28;20125;-81
2021/06/23 03:21:53;;;;;;;4.82;3.30;;;14.10;91.20;;;;;;5010572;28;20030;-80
2021/06/23 03:24:19;;;;;;;4.20;2.70;;;14.10;91.30;;;;;;5011900;28;20358;-80
2021/06/23 03:26:44;;;;;;;3.38;2.42;;;14.10;91.30;;;;;;4994170;28;20452;-80
2021/06/23 03:29:32;;;;;;;6.13;2.78;;;14.10;91.50;;;;;;5010477;28;20069;-81
2021/06/23 03:32:00;;;;;;;3.45;2.35;;;14.10;91.70;;;;;;5010258;28;20117;-80
2021/06/23 03:34:26;;;;;;;3.35;2.47;;;14.10;91.60;;;;;;5011806;28;20030;-81
2021/06/23 03:36:52;;;;;;;2.97;2.45;;;14.10;91.60;;;;;;5010549;28;20032;-81
2021/06/23 03:39:18;;;;;;;5.60;2.88;;;14.10;91.70;;;;;;5010363;28;20445;-79
2021/06/23 03:41:45;;;;;;;3.10;2.13;;;14.10;91.80;;;;;;5026824;28;20029;-80
2021/06/23 03:44:10;;;;;;;4.03;2.80;;;14.10;91.90;;;;;;4993911;28;20041;-80
2021/06/23 03:46:36;;;;;;;4.72;2.22;;;14.10;91.90;;;;;;4993804;28;20481;-79
2021/06/23 03:49:03;;;;;;;4.30;2.35;;;14.10;91.90;;;;;;4994839;28;20041;-80
2021/06/23 03:51:28;;;;;;;3.70;2.60;;;14.10;92.10;;;;;;4997791;28;20064;-80
2021/06/23 03:53:54;;;;;;;2.50;2.13;;;14.10;92.20;;;;;;4997848;28;20060;-80
2021/06/23 03:56:20;;;;;;;2.40;2.10;;;14.10;92.20;;;;;;5014261;28;20036;-81
2021/06/23 03:58:46;;;;;;;2.47;2.25;;;14.10;92.30;;;;;;4998015;28;20056;-80
2021/06/23 04:01:11;;;;;;;5.15;2.88;;;14.00;92.30;;;;;;5013997;28;20590;-80
2021/06/23 04:03:37;;;;;;;4.65;2.30;;;14.00;92.40;;;;;;4997849;28;20080;-79
2021/06/23 04:06:03;;;;;;;4.82;2.38;;;14.10;92.50;;;;;;4997828;28;20037;-80
2021/06/23 04:08:29;;;;;;;3.72;2.25;;;14.00;92.50;;;;;;5013759;28;20046;-80
2021/06/23 04:10:55;;;;;;;4.07;2.17;;;14.00;92.50;;;;;;5013999;28;20038;-80
2021/06/23 04:13:21;;;;;;;2.50;2.20;;;14.00;92.70;;;;;;4997703;28;20034;-80
2021/06/23 04:15:46;;;;;;;3.97;2.00;;;14.10;92.80;;;;;;5013791;28;20032;-81
2021/06/23 04:18:12;;;;;;;3.08;2.45;;;14.10;93.00;;;;;;5014186;28;20065;-80
2021/06/23 04:20:38;;;;;;;3.72;2.45;;;14.10;92.80;;;;;;4997628;28;20120;-79
2021/06/23 04:23:04;;;;;;;3.15;2.33;;;14.10;92.80;;;;;;5014243;28;20375;-80
2021/06/23 04:25:30;;;;;;;2.90;2.30;;;14.10;92.90;;;;;;4997742;28;20060;-80
2021/06/23 04:27:55;;;;;;;3.20;2.20;;;14.10;92.90;;;;;;5014311;28;20037;-81
2021/06/23 04:30:21;;;;;;;2.97;2.13;;;14.10;93.00;;;;;;4997733;28;20081;-80
2021/06/23 04:32:47;;;;;;;4.50;2.22;;;14.10;93.00;;;;;;5013691;28;20030;-81
2021/06/23 04:35:13;;;;;;;2.53;2.08;;;14.10;93.10;;;;;;5013679;28;20060;-81
2021/06/23 04:37:41;;;;;;;3.33;2.50;;;14.10;93.10;;;;;;5014284;28;20026;-81
2021/06/23 04:40:11;;;;;;;3.22;2.13;;;14.10;93.20;;;;;;5016250;28;20388;-81
2021/06/23 04:42:37;;;;;;;4.00;2.60;;;14.00;93.30;;;;;;5015577;28;20018;-81
2021/06/23 04:45:07;;;;;;;3.05;1.92;;;14.10;93.30;;;;;;4997796;28;20029;-81
2021/06/23 04:47:33;;;;;;;6.65;2.40;;;14.00;93.30;;;;;;4998100;28;20369;-81
2021/06/23 04:49:58;;;;;;;3.28;2.53;;;14.10;93.30;;;;;;4998219;28;20038;-80
2021/06/23 04:52:24;;;;;;;3.20;2.60;;;14.00;93.40;;;;;;4998239;28;20388;-82
2021/06/23 04:54:50;;;;;;;2.88;2.50;;;14.00;93.40;;;;;;4997325;28;20538;-81
2021/06/23 04:57:16;;;;;;;3.47;2.92;;;14.00;93.50;;;;;;5013309;28;20029;-82
2021/06/23 04:59:42;;;;;;;3.38;2.45;;;14.00;93.60;;;;;;4997198;28;20039;-82
2021/06/23 05:02:08;;;;;;;3.47;3.05;;;14.00;93.70;;;;;;4997062;28;20034;-83
2021/06/23 05:04:34;;;;;;;3.78;2.65;;;14.00;93.80;;;;;;5013359;28;20474;-82
2021/06/23 05:07:05;;;;;;;4.85;3.30;;;13.90;93.80;;;;;;5013573;28;20038;-83
2021/06/23 05:09:31;;;;;;;4.68;3.40;;;13.90;93.90;;;;;;4997323;28;20057;-83
2021/06/23 05:11:57;;;;;;;7.07;3.05;;;13.90;94.00;;;;;;5014142;28;20030;-83
2021/06/23 05:14:22;;;;;;;4.50;2.95;;;13.90;94.10;;;;;;4996813;28;20121;-83
2021/06/23 05:16:50;;;;;;;4.55;3.10;;;13.90;94.20;;;;;;4997501;28;20030;-81
2021/06/23 05:19:17;;;;;;;5.57;3.17;;;13.90;94.30;;;;;;5013812;28;20028;-81
2021/06/23 05:21:43;;;;;;;5.43;2.92;;;13.80;94.40;;;;;;5015059;28;20080;-83
2021/06/23 05:24:09;;;;;;;4.60;2.63;;;13.80;94.50;;;;;;5013278;28;20104;-82
2021/06/23 05:26:34;;;;;;;3.92;2.50;;;13.80;94.60;;;;;;4996833;28;20042;-83
2021/06/23 05:29:00;;;;;;;2.92;2.17;;;13.80;94.70;;;;;;5014320;28;20034;-83
2021/06/23 05:31:26;;;;;;;2.83;2.10;;;13.90;94.80;;;;;;4996349;28;20036;-82
2021/06/23 05:33:52;;;;;;;3.22;2.60;;;13.90;94.80;;;;;;5013084;28;20030;-81
2021/06/23 05:36:19;;;;;;;3.53;2.20;;;13.90;94.90;;;;;;4996650;28;20033;-81
2021/06/23 05:38:45;;;;;;;4.20;2.20;;;14.00;95.00;;;;;;5012900;28;20028;-83
2021/06/23 05:41:11;;;;;;;3.85;2.60;;;14.00;95.00;;;;;;5012768;28;20077;-82
2021/06/23 05:43:36;;;;;;;3.67;2.60;;;14.10;95.00;;;;;;5013378;28;20029;-81
2021/06/23 05:46:02;;;;;;;3.15;2.40;;;14.10;95.00;;;;;;5013094;28;20041;-80
2021/06/23 05:48:28;;;;;;;7.40;2.30;;;14.20;95.10;;;;;;4996751;28;20036;-82
2021/06/23 05:50:54;;;;;;;3.53;1.90;;;14.20;95.00;;;;;;5012690;28;20584;-81
2021/06/23 05:53:19;;;;;;;2.83;1.98;;;14.20;95.00;;;;;;4996470;28;20030;-81
2021/06/23 05:55:45;;;;;;;2.95;2.35;;;14.30;95.00;;;;;;4996070;28;20038;-82
2021/06/23 05:58:11;;;;;;;2.55;2.05;;;14.30;95.10;;;;;;4996975;28;20564;-82
2021/06/23 06:00:37;;;;;;;3.35;2.10;;;14.30;95.20;;;;;;4998492;28;20030;-81
2021/06/23 06:03:04;;;;;;;2.67;1.77;;;14.40;95.10;;;;;;5000477;28;20032;-81
2021/06/23 06:05:30;;;;;;;4.10;2.20;;;14.40;95.00;;;;;;5018261;28;20057;-80
2021/06/23 06:07:56;;;;;;;2.58;1.83;;;14.50;95.00;;;;;;4999545;28;20092;-80
2021/06/23 06:10:22;;;;;;;2.95;2.10;;;14.40;95.00;;;;;;5017782;28;20044;-79
2021/06/23 06:12:47;;;;;;;2.70;2.05;;;14.40;95.00;;;;;;5019877;28;20037;-79
2021/06/23 06:15:14;;;;;;;2.50;1.83;;;14.40;95.20;;;;;;5001049;28;20030;-80
2021/06/23 06:17:40;;;;;;;3.28;1.98;;;14.40;95.20;;;;;;5019097;28;20037;-81
2021/06/23 06:20:07;;;;;;;3.08;1.73;;;14.40;95.30;;;;;;5018257;28;20029;-81
2021/06/23 06:22:33;;;;;;;4.30;2.10;;;14.40;95.30;;;;;;5019180;28;20106;-80
2021/06/23 06:24:59;;;;;;;2.50;1.70;;;14.40;95.30;;;;;;5018777;28;20026;-79
2021/06/23 06:27:25;;;;;;;2.53;1.65;;;14.40;95.30;;;;;;4999206;28;20034;-81
2021/06/23 06:29:51;;;;;;;2.88;1.90;;;14.40;95.40;;;;;;5014123;28;20030;-80
2021/06/23 06:32:17;;;;;;;1.92;1.40;;;14.50;95.50;;;;;;5015251;28;20056;-83
2021/06/23 06:34:43;;;;;;;2.67;1.55;;;14.50;95.50;;;;;;5015122;28;20062;-81
2021/06/23 06:37:08;;;;;;;2.90;1.58;;;14.60;95.50;;;;;;5014488;28;20048;-80
2021/06/23 06:39:34;;;;;;;1.80;1.30;;;14.60;95.50;;;;;;4997834;28;20104;-81
2021/06/23 06:42:00;;;;;;;3.28;1.52;;;14.70;95.50;;;;;;5015089;28;20046;-81
2021/06/23 06:44:29;;;;;;;3.17;1.60;;;14.70;95.50;;;;;;5016135;28;20088;-82
2021/06/23 06:46:55;;;;;;;2.58;1.67;;;14.70;95.50;;;;;;4998593;28;20029;-81
2021/06/23 06:49:21;;;;;;;3.97;1.60;;;14.70;95.40;;;;;;4997555;28;20044;-81
2021/06/23 06:51:46;;;;;;;2.13;1.23;;;14.70;95.40;;;;;;4999707;28;20050;-82
2021/06/23 06:54:12;;;;;;;2.35;1.30;;;14.70;95.40;;;;;;5014199;28;20104;-82
2021/06/23 06:56:38;;;;;;;2.00;1.33;;;14.70;95.40;;;;;;5016042;28;20030;-80
2021/06/23 06:59:04;;;;;;;2.08;1.30;;;14.70;95.40;;;;;;4999537;28;20072;-83
2021/06/23 07:01:29;;;;;;;1.60;1.23;;;14.70;95.60;;;;;;4999865;28;20400;-80
2021/06/23 07:03:55;;;;;;;2.35;1.15;;;14.80;95.70;;;;;;4997517;28;20026;-81
2021/06/23 07:06:21;;;;;;;2.22;1.20;;;14.80;95.70;;;;;;4997112;28;20029;-82
2021/06/23 07:08:47;;;;;;;4.53;1.13;;;14.90;95.70;;;;;;5012840;28;20085;-83
2021/06/23 07:11:12;;;;;;;1.90;1.23;;;15.00;95.80;;;;;;4996856;28;20034;-81
2021/06/23 07:13:38;;;;;;;1.42;1.13;;;15.00;95.60;;;;;;4997781;28;20037;-82
2021/06/23 07:16:04;;;;;;;2.95;1.20;;;15.10;95.60;;;;;;4997357;28;20036;-84
2021/06/23 07:18:31;;;;;;;1.83;1.05;;;15.10;95.70;;;;;;5012825;28;20026;-82
2021/06/23 07:20:56;;;;;;;1.85;1.10;;;15.20;95.80;;;;;;5029005;28;20470;-80
2021/06/23 07:23:22;;;;;;;1.80;1.20;;;15.20;95.70;;;;;;4996496;28;20072;-81
2021/06/23 07:25:48;;;;;;;1.80;1.20;;;15.30;95.80;;;;;;5012740;28;20125;-80
2021/06/23 07:28:16;;;;;;;3.92;1.20;;;15.40;95.80;;;;;;5011823;28;20037;-80
2021/06/23 07:30:45;;;;;;;2.42;1.00;;;15.50;95.70;;;;;;5011963;28;20377;-82
2021/06/23 07:33:11;;;;;;;2.37;1.60;;;15.50;95.70;;;;;;5014350;28;20036;-81
2021/06/23 07:38:22;;;;;;;2.05;0.98;;;15.60;95.70;;;;;;5013482;28;20087;-81
2021/06/23 07:41:06;;;;;;;0.90;0.70;;;15.60;95.50;;;;;;4998292;28;20430;-82
2021/06/23 07:43:31;;;;;;;1.58;0.75;;;15.60;95.40;;;;;;4997863;28;20552;-81
2021/06/23 07:45:59;;;;;;;2.55;0.90;;;15.60;95.50;;;;;;5011291;28;20064;-82
2021/06/23 07:48:29;;;;;;;0.70;0.63;;;15.60;95.60;;;;;;4994759;28;20038;-80
2021/06/23 07:51:03;;;;;;;1.38;0.80;;;15.50;95.70;;;;;;5010857;28;20045;-82
2021/06/23 07:54:16;;;;;;;1.33;0.63;;;15.60;95.70;;;;;;4995715;28;20064;-82
2021/06/23 08:10:24;;;;;;;3.72;1.67;;;15.80;95.90;;;;;;5012405;28;20578;-83
2021/06/23 08:12:58;;;;;;;2.28;0.90;;;15.90;95.90;;;;;;5001276;28;20036;-79
2021/06/23 08:15:27;;;;;;;3.30;1.00;;;15.90;95.90;;;;;;4994914;28;20022;-81
2021/06/23 08:17:53;;;;;;;1.40;0.88;;;15.90;96.00;;;;;;5014293;28;20113;-81
2021/06/23 08:20:19;;;;;;;1.45;0.75;;;15.90;96.00;;;;;;5012366;28;20040;-80
2021/06/23 08:22:45;;;;;;;1.40;0.80;;;16.00;96.00;;;;;;5023963;28;20329;-82
2021/06/23 08:25:11;;;;;;;0.77;0.68;;;16.10;96.10;;;;;;5031982;28;20025;-81
2021/06/23 08:27:38;;;;;;;1.00;0.60;;;16.20;96.00;;;;;;5013919;28;20029;-81
2021/06/23 08:30:05;;;;;;;1.73;0.88;;;16.20;95.90;;;;;;5022994;28;20026;-81
2021/06/23 08:32:31;;;;;;;0.75;0.52;;;16.30;95.90;;;;;;5034983;28;20032;-81
2021/06/23 08:34:56;;;;;;;1.50;0.90;;;16.40;95.80;;;;;;5021886;28;20022;-81
2021/06/23 08:37:22;;;;;;;1.77;1.00;;;16.40;95.70;;;;;;5008420;28;20177;-81
2021/06/23 08:39:48;;;;;;;2.92;1.52;;;16.40;96.00;;;;;;5022472;28;20026;-81
2021/06/23 08:42:13;;;;;;;29.67;10.43;;;16.50;95.80;;;;;;5006408;28;20033;-81
2021/06/23 08:44:39;;;;;;;3.30;1.90;;;16.60;96.00;;;;;;5058770;28;20025;-81
2021/06/23 08:47:05;;;;;;;1.40;0.88;;;16.60;95.80;;;;;;5028419;28;20026;-82
2021/06/23 08:49:31;;;;;;;2.55;1.25;;;16.60;95.60;;;;;;5024850;28;20026;-81
2021/06/23 08:51:57;;;;;;;1.27;0.82;;;16.60;95.70;;;;;;5012575;28;20026;-82
2021/06/23 08:54:26;;;;;;;1.35;1.05;;;16.60;95.80;;;;;;5009843;28;20080;-80
2021/06/23 08:56:53;;;;;;;1.10;0.70;;;16.60;95.70;;;;;;5016359;28;20021;-82
2021/06/23 08:59:18;;;;;;;1.40;0.90;;;16.60;95.70;;;;;;5000850;28;20037;-81
2021/06/23 09:01:44;;;;;;;2.97;1.50;;;16.60;95.70;;;;;;5009549;28;20061;-80
2021/06/23 09:04:12;;;;;;;2.42;1.90;;;16.60;95.70;;;;;;5024261;28;20115;-81
2021/06/23 09:06:56;;;;;;;8.55;2.95;;;16.70;95.80;;;;;;5018063;28;20053;-81
2021/06/23 09:09:32;;;;;;;3.63;1.83;;;16.60;95.80;;;;;;5022099;28;20054;-82
2021/06/23 09:12:03;;;;;;;0.95;0.73;;;16.70;95.80;;;;;;5035297;28;20030;-81
2021/06/23 09:14:36;;;;;;;1.45;0.90;;;16.70;95.90;;;;;;5020442;28;20029;-81
2021/06/23 09:17:15;;;;;;;1.50;0.80;;;16.80;96.10;;;;;;5035604;28;20418;-82
2021/06/23 09:20:06;;;;;;;1.63;1.13;;;16.90;96.10;;;;;;5036396;28;20089;-82
2021/06/23 09:22:45;;;;;;;12.32;5.70;;;17.10;96.00;;;;;;5028496;28;20397;-81
2021/06/23 09:25:11;;;;;;;1.70;1.10;;;17.30;95.60;;;;;;5034779;28;20640;-82
2021/06/23 09:27:48;;;;;;;2.00;1.23;;;17.30;95.40;;;;;;5025037;28;20026;-81
2021/06/23 09:30:33;;;;;;;3.53;0.90;;;17.40;95.30;;;;;;5043640;28;20085;-81
2021/06/23 09:33:11;;;;;;;1.52;0.82;;;17.40;95.30;;;;;;5035387;28;20017;-81
2021/06/23 09:35:39;;;;;;;3.03;1.50;;;17.50;95.20;;;;;;5033885;28;20028;-81
2021/06/23 09:38:05;;;;;;;1.83;1.45;;;17.50;95.30;;;;;;5036508;28;20022;-82
2021/06/23 09:40:40;;;;;;;2.13;1.40;;;17.50;95.20;;;;;;5037172;28;20037;-81
2021/06/23 09:43:07;;;;;;;3.88;1.85;;;17.60;95.20;;;;;;5021627;28;20030;-82
2021/06/23 09:45:33;;;;;;;3.72;1.30;;;17.60;95.20;;;;;;5004933;28;20399;-82
2021/06/23 09:47:59;;;;;;;3.80;1.25;;;17.60;95.00;;;;;;5017700;28;20373;-81
2021/06/23 09:50:28;;;;;;;2.30;1.40;;;17.70;95.00;;;;;;5034704;28;20026;-81
2021/06/23 09:52:54;;;;;;;6.05;1.63;;;17.70;95.00;;;;;;5036703;28;20036;-81
2021/06/23 09:55:20;;;;;;;2.40;1.50;;;17.80;95.00;;;;;;5038805;28;20057;-81
2021/06/23 09:58:13;;;;;;;3.75;1.70;;;17.90;94.80;;;;;;5019828;28;20025;-81
2021/06/23 10:01:12;;;;;;;2.55;1.70;;;18.10;94.90;;;;;;5035606;28;20191;-81
2021/06/23 10:03:56;;;;;;;2.30;1.55;;;18.20;94.70;;;;;;5047718;28;20543;-80
2021/06/23 10:06:24;;;;;;;4.47;1.52;;;18.40;94.60;;;;;;5037028;28;20033;-82
2021/06/23 10:08:51;;;;;;;2.65;1.58;;;18.50;94.20;;;;;;5035013;28;20052;-82
2021/06/23 10:11:38;;;;;;;3.58;2.17;;;18.60;94.00;;;;;;5035323;28;20037;-81
2021/06/23 10:14:09;;;;;;;4.10;2.58;;;18.60;94.00;;;;;;5051768;28;20033;-81
2021/06/23 10:16:35;;;;;;;3.45;2.85;;;18.80;93.80;;;;;;5034921;28;20025;-82
2021/06/23 10:19:03;;;;;;;7.55;4.30;;;18.80;93.60;;;;;;5035824;28;20029;-81
2021/06/23 10:21:32;;;;;;;3.45;2.33;;;18.80;93.80;;;;;;5019018;28;20669;-83
2021/06/23 10:23:59;;;;;;;2.58;2.05;;;18.90;93.60;;;;;;5030136;28;20026;-81
2021/06/23 10:26:29;;;;;;;2.80;1.85;;;18.80;93.40;;;;;;5003903;28;20021;-81
2021/06/23 10:28:57;;;;;;;2.72;2.13;;;18.90;93.50;;;;;;5028839;28;20018;-84
2021/06/23 10:31:25;;;;;;;3.85;2.17;;;18.90;93.30;;;;;;5019726;28;20101;-82
2021/06/23 10:33:51;;;;;;;3.97;2.60;;;18.90;93.20;;;;;;5036280;28;20029;-82
2021/06/23 10:36:17;;;;;;;5.68;3.63;;;18.80;93.30;;;;;;5018668;28;20039;-82
2021/06/23 10:38:44;;;;;;;4.82;2.03;;;18.80;93.30;;;;;;5016500;28;20026;-81
2021/06/23 10:41:11;;;;;;;5.30;3.10;;;18.80;93.30;;;;;;5018928;28;20511;-83
2021/06/23 10:43:37;;;;;;;5.15;2.60;;;18.70;93.50;;;;;;5035876;28;20428;-82
2021/06/23 10:46:03;;;;;;;3.33;2.40;;;18.60;93.60;;;;;;5020004;28;20034;-82
2021/06/23 10:48:28;;;;;;;3.85;2.65;;;18.60;93.60;;;;;;5034526;28;20490;-80
2021/06/23 10:50:54;;;;;;;4.38;2.97;;;18.60;93.60;;;;;;5009482;28;20030;-80
2021/06/23 10:53:36;;;;;;;5.20;3.58;;;18.70;93.90;;;;;;5037580;28;20072;-80
2021/06/23 10:56:05;;;;;;;4.75;3.47;;;18.70;93.80;;;;;;5032199;28;20029;-83
2021/06/23 10:58:36;;;;;;;5.45;3.40;;;18.70;93.80;;;;;;5035980;28;20036;-82
2021/06/23 11:01:08;;;;;;;5.22;3.13;;;18.80;93.80;;;;;;5039503;28;20037;-82
2021/06/23 11:03:58;;;;;;;3.58;2.60;;;18.80;93.60;;;;;;5037519;28;20059;-81
2021/06/23 11:06:43;;;;;;;;;;;18.70;94.10;;;;;;5035457;28;20427;-82
2021/06/23 11:09:26;;;;;;;5.28;3.45;;;18.80;94.00;;;;;;5032725;28;20371;-81
2021/06/23 11:11:53;;;;;;;5.13;3.83;;;18.90;94.00;;;;;;5017795;28;20030;-81
2021/06/23 11:14:20;;;;;;;5.97;4.60;;;18.90;94.00;;;;;;5015107;28;20030;-82
2021/06/23 11:16:47;;;;;;;7.82;6.60;;;19.00;94.00;;;;;;5030840;28;20026;-82
2021/06/23 11:19:13;;;;;;;8.50;5.43;;;19.00;93.90;;;;;;5023418;28;20384;-81
2021/06/23 11:21:40;;;;;;;6.53;4.97;;;19.10;94.00;;;;;;4999427;28;20353;-79
2021/06/23 11:24:15;;;;;;;3.25;2.72;;;19.10;94.00;;;;;;5021981;28;20018;-81
2021/06/23 11:26:40;;;;;;;15.50;11.63;;;19.10;94.10;;;;;;5028762;28;20026;-79
2021/06/23 11:29:09;;;;;;;4.00;3.33;;;19.20;94.00;;;;;;5061565;28;20090;-81
2021/06/23 11:31:54;;;;;;;5.35;4.07;;;19.20;94.20;;;;;;5016558;28;20441;-82
2021/06/23 11:34:44;;;;;;;5.50;4.22;;;19.20;94.10;;;;;;5018605;28;20018;-82
2021/06/23 11:37:16;;;;;;;5.18;3.80;;;19.20;94.20;;;;;;5019167;28;20037;-80
2021/06/23 11:39:43;;;;;;;6.45;3.95;;;19.30;94.10;;;;;;5043772;28;20033;-80
2021/06/23 11:42:10;;;;;;;4.80;4.00;;;19.30;94.10;;;;;;5055238;28;20044;-80
2021/06/23 11:44:38;;;;;;;5.88;3.88;;;19.30;94.10;;;;;;5030300;28;20040;-80
2021/06/23 11:47:04;;;;;;;6.82;4.30;;;19.30;94.30;;;;;;5034437;28;20492;-79
2021/06/23 11:49:31;;;;;;;6.18;4.97;;;19.30;94.30;;;;;;5033513;28;20069;-81
2021/06/23 11:51:58;;;;;;;9.35;5.88;;;19.30;94.20;;;;;;5017821;28;20026;-81
2021/06/23 11:54:24;;;;;;;7.78;5.70;;;19.30;94.20;;;;;;5041913;28;20020;-80
2021/06/23 11:56:50;;;;;;;5.40;4.47;;;19.30;94.30;;;;;;5037827;28;20112;-82
2021/06/23 11:59:15;;;;;;;5.85;4.72;;;19.50;94.20;;;;;;5036148;28;20032;-82
2021/06/23 12:01:41;;;;;;;8.23;5.15;;;19.60;94.20;;;;;;5054340;28;20491;-81
2021/06/23 12:04:06;;;;;;;7.72;6.93;;;19.80;94.10;;;;;;5036571;28;20025;-80
2021/06/23 12:06:33;;;;;;;9.02;6.43;;;20.00;94.10;;;;;;5053672;28;20036;-81
2021/06/23 12:08:58;;;;;;;18.73;10.77;;;20.10;93.80;;;;;;5052806;28;20068;-80
2021/06/23 12:11:24;;;;;;;8.13;6.10;;;20.10;93.80;;;;;;5040243;28;20487;-82
2021/06/23 12:13:50;;;;;;;7.97;5.85;;;20.00;93.50;;;;;;5057398;28;20029;-82
2021/06/23 12:16:16;;;;;;;8.20;6.35;;;19.90;93.40;;;;;;5057047;28;20041;-81
2021/06/23 12:18:42;;;;;;;9.15;6.88;;;19.80;93.60;;;;;;5040608;28;20056;-82
2021/06/23 12:21:08;;;;;;;9.82;7.65;;;19.70;93.70;;;;;;5039622;28;20033;-82
2021/06/23 12:23:35;;;;;;;9.43;7.50;;;19.60;93.90;;;;;;5046188;28;20761;-80
2021/06/23 12:26:00;;;;;;;9.68;8.02;;;19.70;94.10;;;;;;5037916;28;20025;-81
2021/06/23 12:28:26;;;;;;;16.73;10.05;;;19.70;94.20;;;;;;5035348;28;20599;-78
2021/06/23 12:30:52;;;;;;;8.50;6.97;;;19.70;94.40;;;;;;5052469;28;20416;-79
2021/06/23 12:33:18;;;;;;;9.43;7.25;;;19.80;94.30;;;;;;5036515;28;20028;-82
2021/06/23 12:35:45;;;;;;;10.00;7.75;;;19.70;94.50;;;;;;5036302;28;20056;-81
2021/06/23 12:38:14;;;;;;;6.78;5.70;;;19.80;94.70;;;;;;5018781;28;20083;-80
2021/06/23 12:40:40;;;;;;;7.55;5.28;;;19.80;94.60;;;;;;5051498;28;20104;-81
2021/06/23 12:43:24;;;;;;;8.27;6.32;;;19.90;94.70;;;;;;5019315;28;20064;-81
2021/06/23 12:45:51;;;;;;;8.32;6.93;;;19.90;94.90;;;;;;5021468;28;20484;-80
2021/06/23 12:48:17;;;;;;;8.32;6.93;;;20.00;94.90;;;;;;5052739;28;20375;-80
2021/06/23 12:50:43;;;;;;;11.57;6.85;;;20.10;94.80;;;;;;5018762;28;20045;-81
2021/06/23 12:53:09;;;;;;;8.02;5.72;;;20.10;94.90;;;;;;5019600;28;20034;-78
2021/06/23 12:55:35;;;;;;;10.00;8.05;;;20.20;95.00;;;;;;5036575;28;20028;-81
2021/06/23 12:58:01;;;;;;;6.53;5.20;;;20.30;94.90;;;;;;5036970;28;20032;-80
2021/06/23 13:00:27;;;;;;;5.72;4.65;;;20.40;94.90;;;;;;5005020;28;20029;-81
2021/06/23 13:02:53;;;;;;;7.00;6.18;;;20.40;94.80;;;;;;5020362;28;20038;-81
2021/06/23 13:05:22;;;;;;;7.63;6.82;;;20.50;94.60;;;;;;5021885;28;20419;-80
2021/06/23 13:07:49;;;;;;;9.53;8.00;;;20.40;94.70;;;;;;5016450;28;20046;-81